Time;durP1;ratioP1;P1;durP2;ratioP2;P2;SDS_P1;SDS_P2;PMS_P1;PMS_P2;Temp;Humidity;BMP_temperature;BMP_pressure;BME280_temperature;BME280_humidity;BME280_pressure;Samples;Min_cycle;Max_cycle;Signal;HPM_P1;HPM_P2
2023/08/06 00:00:28;;;;;;;14.73;6.05;;;15.70;93.50;;;;;;4960841;28;20070;-76
2023/08/06 00:02:54;;;;;;;8.68;4.05;;;15.70;93.40;;;;;;4964926;28;20031;-76
2023/08/06 00:05:21;;;;;;;9.40;3.30;;;15.50;92.90;;;;;;4957116;28;20079;-75
2023/08/06 00:07:50;;;;;;;6.72;2.85;;;15.40;92.60;;;;;;4964993;28;20411;-76
2023/08/06 00:10:17;;;;;;;8.25;2.63;;;15.40;92.70;;;;;;4976873;28;20035;-77
2023/08/06 00:12:45;;;;;;;7.60;2.83;;;15.30;92.50;;;;;;4964906;28;20065;-76
2023/08/06 00:15:11;;;;;;;7.35;2.47;;;15.30;92.30;;;;;;4941149;28;20051;-74
2023/08/06 00:17:37;;;;;;;7.93;1.85;;;15.30;92.10;;;;;;4945660;28;20047;-75
2023/08/06 00:20:05;;;;;;;10.93;2.25;;;15.20;91.70;;;;;;4946835;28;20650;-77
2023/08/06 00:22:35;;;;;;;9.40;1.65;;;15.10;91.60;;;;;;4945355;28;20046;-75
2023/08/06 00:25:01;;;;;;;11.45;1.70;;;15.10;91.40;;;;;;4945332;28;20019;-75
2023/08/06 00:27:27;;;;;;;9.45;1.65;;;15.10;91.30;;;;;;4944530;28;20047;-75
2023/08/06 00:29:53;;;;;;;10.50;2.22;;;15.00;91.20;;;;;;4943173;28;20027;-75
2023/08/06 00:32:19;;;;;;;9.93;2.20;;;15.00;91.10;;;;;;4953520;28;20443;-76
2023/08/06 00:34:44;;;;;;;7.80;2.33;;;15.00;91.00;;;;;;4952057;28;20090;-77
2023/08/06 00:37:10;;;;;;;7.00;1.50;;;14.90;91.10;;;;;;4954962;28;20399;-76
2023/08/06 00:39:36;;;;;;;5.97;1.40;;;14.80;91.10;;;;;;4965613;28;20027;-76
2023/08/06 00:42:01;;;;;;;11.23;2.03;;;14.80;91.20;;;;;;4965706;28;20073;-74
2023/08/06 00:44:27;;;;;;;10.13;2.10;;;14.80;91.30;;;;;;4967984;28;20300;-76
2023/08/06 00:46:53;;;;;;;7.97;1.83;;;14.80;91.40;;;;;;4967345;28;20093;-78
2023/08/06 00:49:19;;;;;;;9.40;1.88;;;14.80;91.30;;;;;;4973336;28;20039;-76
2023/08/06 00:51:45;;;;;;;7.22;1.80;;;14.80;91.30;;;;;;4969765;28;20043;-76
2023/08/06 00:54:10;;;;;;;8.23;1.80;;;14.90;91.30;;;;;;4966429;28;20459;-77
2023/08/06 00:56:37;;;;;;;6.95;2.10;;;14.90;91.30;;;;;;4969630;28;20038;-73
2023/08/06 00:59:05;;;;;;;7.05;1.92;;;15.00;91.40;;;;;;4950568;28;20505;-77
2023/08/06 01:01:31;;;;;;;7.10;2.03;;;15.00;91.30;;;;;;4945051;28;20075;-76
2023/08/06 01:03:56;;;;;;;8.52;2.20;;;15.00;91.40;;;;;;4946623;28;20198;-77
2023/08/06 01:06:35;;;;;;;6.65;1.58;;;15.00;91.50;;;;;;4958514;28;20038;-76
2023/08/06 01:09:27;;;;;;;5.15;1.60;;;15.00;91.50;;;;;;4957754;28;20069;-79
2023/08/06 01:12:04;;;;;;;3.55;1.27;;;14.80;91.70;;;;;;4964621;28;20038;-75
2023/08/06 01:14:36;;;;;;;5.10;1.73;;;14.80;92.10;;;;;;4968017;28;20035;-76
2023/08/06 01:17:04;;;;;;;5.28;1.60;;;14.80;92.40;;;;;;4948815;28;20046;-78
2023/08/06 01:19:30;;;;;;;6.15;1.67;;;14.70;92.50;;;;;;4951221;28;20078;-77
2023/08/06 01:21:55;;;;;;;7.25;1.83;;;14.70;92.60;;;;;;4962905;28;20074;-76
2023/08/06 01:24:22;;;;;;;8.18;2.30;;;14.80;92.90;;;;;;4968609;28;20031;-77
2023/08/06 01:26:58;;;;;;;6.07;1.80;;;14.70;93.00;;;;;;4973151;28;20050;-73
2023/08/06 01:29:31;;;;;;;5.45;1.98;;;14.80;93.20;;;;;;4986090;28;20525;-77
2023/08/06 01:31:58;;;;;;;5.53;2.10;;;14.70;93.20;;;;;;4962794;28;20038;-78
2023/08/06 01:34:27;;;;;;;6.05;2.10;;;14.70;93.40;;;;;;4965780;28;20025;-74
2023/08/06 01:36:53;;;;;;;6.43;2.50;;;14.80;93.40;;;;;;4953913;28;20038;-73
2023/08/06 01:39:22;;;;;;;7.00;2.67;;;14.80;93.60;;;;;;4967270;28;20069;-75
2023/08/06 01:41:48;;;;;;;6.05;2.40;;;14.70;93.60;;;;;;4970547;28;20487;-74
2023/08/06 01:44:15;;;;;;;4.70;1.83;;;14.80;93.60;;;;;;4964331;28;20093;-75
2023/08/06 01:46:41;;;;;;;5.47;1.98;;;14.80;93.60;;;;;;4961310;28;20621;-76
2023/08/06 01:49:06;;;;;;;6.90;2.80;;;14.90;93.80;;;;;;4966067;28;20035;-74
2023/08/06 01:51:32;;;;;;;9.18;3.40;;;14.90;93.90;;;;;;4964944;28;20461;-77
2023/08/06 01:53:58;;;;;;;8.20;3.85;;;15.00;94.00;;;;;;4965479;28;20851;-75
2023/08/06 01:56:24;;;;;;;10.20;4.80;;;15.00;94.10;;;;;;4963843;28;20042;-76
2023/08/06 01:58:49;;;;;;;9.75;4.25;;;15.00;94.20;;;;;;4960733;28;20407;-76
2023/08/06 02:01:15;;;;;;;8.25;3.80;;;15.00;94.20;;;;;;4955110;28;20047;-76
2023/08/06 02:03:41;;;;;;;8.32;3.80;;;15.10;94.30;;;;;;4964143;28;20046;-76
2023/08/06 02:06:07;;;;;;;6.65;3.50;;;15.10;94.40;;;;;;4957603;28;20127;-80
2023/08/06 02:08:32;;;;;;;6.28;3.22;;;15.10;94.20;;;;;;4947422;28;20035;-76
2023/08/06 02:10:59;;;;;;;6.05;3.45;;;15.10;94.10;;;;;;4958751;28;20089;-76
2023/08/06 02:13:24;;;;;;;10.85;4.40;;;15.10;94.00;;;;;;4971268;28;20032;-76
2023/08/06 02:15:50;;;;;;;8.85;4.57;;;15.10;94.00;;;;;;4965063;28;20042;-77
2023/08/06 02:18:16;;;;;;;10.88;4.90;;;15.10;94.00;;;;;;4973831;28;20137;-75
2023/08/06 02:20:42;;;;;;;10.40;5.40;;;15.10;94.00;;;;;;4972083;28;20145;-77
2023/08/06 02:23:08;;;;;;;13.85;6.65;;;15.00;93.50;;;;;;4958591;28;20527;-79
2023/08/06 02:25:34;;;;;;;13.00;6.45;;;15.00;93.50;;;;;;4939308;28;20043;-79
2023/08/06 02:28:00;;;;;;;13.02;6.78;;;14.90;93.50;;;;;;4946804;28;20035;-75
2023/08/06 02:30:26;;;;;;;12.68;7.20;;;14.90;93.50;;;;;;4943926;28;20054;-74
2023/08/06 02:32:51;;;;;;;15.10;7.60;;;14.90;93.60;;;;;;4956394;28;20035;-76
2023/08/06 02:35:17;;;;;;;14.50;7.40;;;14.90;93.60;;;;;;4966721;28;20030;-75
2023/08/06 02:37:42;;;;;;;17.08;8.57;;;14.90;93.50;;;;;;4969962;28;20376;-76
2023/08/06 02:40:08;;;;;;;15.45;8.13;;;14.90;93.50;;;;;;4969635;28;20031;-79
2023/08/06 02:42:34;;;;;;;16.23;8.75;;;14.90;93.50;;;;;;4969003;28;20042;-75
2023/08/06 02:45:00;;;;;;;18.10;8.50;;;14.90;93.60;;;;;;4973164;28;20029;-77
2023/08/06 02:47:25;;;;;;;15.70;8.52;;;14.90;93.60;;;;;;4969327;28;20046;-76
2023/08/06 02:49:51;;;;;;;16.30;9.60;;;14.90;93.60;;;;;;4971222;28;20030;-75
2023/08/06 02:52:16;;;;;;;16.15;9.90;;;14.90;93.60;;;;;;4958439;28;20039;-77
2023/08/06 02:54:42;;;;;;;14.77;9.43;;;14.80;93.70;;;;;;4987725;28;20113;-75
2023/08/06 02:57:08;;;;;;;13.40;8.75;;;14.90;93.70;;;;;;4966507;28;20142;-79
2023/08/06 02:59:34;;;;;;;15.68;8.00;;;14.90;93.70;;;;;;4970362;28;20412;-76
2023/08/06 03:01:59;;;;;;;15.25;8.88;;;14.90;93.60;;;;;;4959892;28;20039;-76
2023/08/06 03:04:25;;;;;;;15.48;8.93;;;14.80;93.50;;;;;;4949329;28;20439;-76
2023/08/06 03:06:51;;;;;;;15.75;8.68;;;14.80;93.30;;;;;;4951560;28;20046;-75
2023/08/06 03:09:17;;;;;;;14.85;8.20;;;14.80;93.30;;;;;;4949047;28;20039;-76
2023/08/06 03:11:43;;;;;;;19.25;9.10;;;14.90;93.30;;;;;;4951261;28;20031;-76
2023/08/06 03:14:09;;;;;;;17.73;9.00;;;14.90;93.20;;;;;;4954403;28;20061;-75
2023/08/06 03:16:35;;;;;;;17.65;8.20;;;14.90;93.30;;;;;;4946331;28;20360;-77
2023/08/06 03:19:01;;;;;;;18.30;8.30;;;14.90;93.40;;;;;;4966998;28;20146;-76
2023/08/06 03:21:26;;;;;;;18.60;7.78;;;14.90;93.30;;;;;;4961230;28;20435;-76
2023/08/06 03:23:52;;;;;;;15.70;7.32;;;15.00;93.30;;;;;;4947123;28;20039;-77
2023/08/06 03:26:18;;;;;;;16.60;7.38;;;15.00;93.30;;;;;;4953346;28;20039;-76
2023/08/06 03:28:44;;;;;;;22.75;8.18;;;14.90;93.20;;;;;;4959028;28;20046;-75
2023/08/06 03:31:09;;;;;;;17.60;6.38;;;14.90;93.10;;;;;;4962191;28;20043;-77
2023/08/06 03:33:35;;;;;;;18.30;6.90;;;15.00;93.00;;;;;;4954456;28;20047;-76
2023/08/06 03:36:01;;;;;;;18.00;7.05;;;14.90;92.70;;;;;;4959678;28;20149;-76
2023/08/06 03:38:27;;;;;;;15.02;5.88;;;14.90;92.50;;;;;;4955396;28;20031;-76
2023/08/06 03:40:53;;;;;;;15.18;5.85;;;14.90;92.30;;;;;;4951227;28;20122;-76
2023/08/06 03:43:19;;;;;;;15.70;5.80;;;15.00;92.30;;;;;;4952142;28;20059;-76
2023/08/06 03:45:45;;;;;;;14.55;5.40;;;15.00;92.30;;;;;;4956566;28;20129;-77
2023/08/06 03:48:11;;;;;;;15.45;5.70;;;15.00;92.10;;;;;;4951547;28;20490;-77
2023/08/06 03:50:36;;;;;;;15.88;5.53;;;15.00;91.80;;;;;;4956795;28;20463;-76
2023/08/06 03:53:02;;;;;;;17.80;5.72;;;15.00;91.80;;;;;;4954454;28;20373;-76
2023/08/06 03:55:28;;;;;;;17.88;5.10;;;15.00;91.80;;;;;;4974588;28;20468;-76
2023/08/06 03:57:53;;;;;;;16.40;4.97;;;15.00;91.50;;;;;;4953204;28;20117;-76
2023/08/06 04:00:19;;;;;;;15.50;5.05;;;14.90;91.30;;;;;;4958461;28;20568;-76
2023/08/06 04:02:45;;;;;;;12.10;4.20;;;14.90;91.10;;;;;;4959329;28;20039;-75
2023/08/06 04:05:11;;;;;;;10.50;4.20;;;14.80;90.90;;;;;;4950576;28;20030;-75
2023/08/06 04:07:37;;;;;;;14.38;4.85;;;14.80;90.30;;;;;;4963301;28;20430;-75
2023/08/06 04:10:04;;;;;;;13.38;4.57;;;14.80;90.00;;;;;;4965762;28;20061;-77
2023/08/06 04:12:30;;;;;;;9.45;3.97;;;14.80;89.90;;;;;;4961490;28;20055;-75
2023/08/06 04:14:58;;;;;;;16.17;4.22;;;14.80;89.90;;;;;;4940929;28;20074;-76
2023/08/06 04:17:24;;;;;;;17.30;4.78;;;14.80;89.80;;;;;;4948878;28;20043;-76
2023/08/06 04:19:54;;;;;;;12.45;4.45;;;14.80;89.90;;;;;;4950916;28;20136;-77
2023/08/06 04:22:21;;;;;;;14.65;5.30;;;14.80;90.00;;;;;;4967261;28;20035;-76
2023/08/06 04:24:47;;;;;;;15.68;5.03;;;14.80;89.90;;;;;;4971649;28;20106;-76
2023/08/06 04:27:14;;;;;;;16.05;5.03;;;14.70;89.90;;;;;;4966610;28;20054;-76
2023/08/06 04:29:40;;;;;;;16.02;5.15;;;14.80;89.40;;;;;;4967644;28;20029;-76
2023/08/06 04:32:07;;;;;;;13.77;5.07;;;14.80;89.30;;;;;;4961983;28;20039;-75
2023/08/06 04:34:34;;;;;;;17.48;5.72;;;14.80;89.30;;;;;;4965371;28;20038;-75
2023/08/06 04:37:00;;;;;;;16.55;6.03;;;14.80;89.20;;;;;;4959064;28;20042;-76
2023/08/06 04:39:26;;;;;;;18.77;5.55;;;14.80;89.00;;;;;;4965827;28;20039;-79
2023/08/06 04:41:51;;;;;;;15.40;5.35;;;14.80;88.80;;;;;;4960353;28;20099;-77
2023/08/06 04:44:17;;;;;;;15.57;5.15;;;14.70;88.70;;;;;;4965217;28;20046;-79
2023/08/06 04:46:43;;;;;;;15.88;5.88;;;14.70;88.60;;;;;;4967087;28;20027;-75
2023/08/06 04:49:09;;;;;;;19.88;6.93;;;14.80;88.70;;;;;;4962403;28;20043;-78
2023/08/06 04:51:35;;;;;;;15.80;5.93;;;14.70;88.70;;;;;;4967744;28;20121;-77
2023/08/06 04:54:00;;;;;;;14.57;6.90;;;14.70;88.70;;;;;;4955477;28;20701;-76
2023/08/06 04:56:26;;;;;;;17.38;6.90;;;14.70;88.70;;;;;;4961700;28;20113;-76
2023/08/06 04:58:52;;;;;;;15.02;7.00;;;14.70;88.50;;;;;;4956419;28;20745;-75
2023/08/06 05:01:18;;;;;;;17.35;7.05;;;14.70;88.60;;;;;;4951610;28;20032;-76
2023/08/06 05:03:44;;;;;;;21.02;7.88;;;14.70;88.80;;;;;;4963454;28;20046;-76
2023/08/06 05:06:10;;;;;;;17.92;7.05;;;14.70;88.80;;;;;;4969070;28;20459;-77
2023/08/06 05:08:36;;;;;;;16.95;7.22;;;14.70;88.50;;;;;;4969231;28;20125;-75
2023/08/06 05:11:01;;;;;;;19.08;7.10;;;14.70;88.30;;;;;;4969347;28;20114;-75
2023/08/06 05:13:27;;;;;;;14.60;7.28;;;14.70;88.00;;;;;;4970366;28;20042;-75
2023/08/06 05:15:56;;;;;;;18.80;6.68;;;14.70;88.20;;;;;;4967684;28;20039;-76
2023/08/06 05:18:22;;;;;;;24.02;7.50;;;14.70;88.00;;;;;;4954453;28;20039;-75
2023/08/06 05:20:48;;;;;;;14.38;6.05;;;14.70;87.60;;;;;;4950955;28;20045;-76
2023/08/06 05:23:13;;;;;;;14.55;5.70;;;14.70;87.20;;;;;;4951027;28;20066;-78
2023/08/06 05:25:39;;;;;;;14.93;6.03;;;14.80;87.20;;;;;;4949836;28;20058;-76
2023/08/06 05:28:05;;;;;;;14.63;5.10;;;14.80;87.20;;;;;;4963511;28;20047;-76
2023/08/06 05:30:31;;;;;;;15.52;4.75;;;14.80;87.20;;;;;;4963978;28;20622;-75
2023/08/06 05:32:56;;;;;;;17.60;5.07;;;14.80;86.70;;;;;;4959562;28;20038;-76
2023/08/06 05:35:22;;;;;;;11.55;4.25;;;14.80;87.10;;;;;;4983028;28;20550;-76
2023/08/06 05:37:48;;;;;;;12.38;3.38;;;14.70;87.90;;;;;;4965781;28;20495;-76
2023/08/06 05:40:14;;;;;;;12.43;2.45;;;14.60;88.80;;;;;;4969146;28;20097;-78
2023/08/06 05:42:41;;;;;;;12.57;3.00;;;14.40;89.60;;;;;;4951792;28;20954;-76
2023/08/06 05:45:07;;;;;;;12.93;2.72;;;14.30;90.20;;;;;;4969776;28;21352;-77
2023/08/06 05:47:33;;;;;;;11.18;2.53;;;14.30;90.60;;;;;;4962334;28;20097;-75
2023/08/06 05:49:58;;;;;;;11.15;2.95;;;14.20;90.90;;;;;;4951163;28;20031;-76
2023/08/06 05:52:24;;;;;;;11.77;2.70;;;14.30;91.00;;;;;;4963876;28;20392;-76
2023/08/06 05:54:50;;;;;;;11.18;2.88;;;14.30;91.10;;;;;;4965823;28;20433;-76
2023/08/06 05:57:16;;;;;;;12.18;2.85;;;14.30;90.80;;;;;;4959387;28;20483;-76
2023/08/06 05:59:42;;;;;;;14.40;2.42;;;14.40;90.60;;;;;;4963835;28;20022;-77
2023/08/06 06:02:07;;;;;;;9.95;2.33;;;14.40;90.30;;;;;;4962747;28;20026;-74
2023/08/06 06:04:33;;;;;;;13.00;2.42;;;14.50;89.80;;;;;;4952410;28;20024;-76
2023/08/06 06:06:59;;;;;;;7.72;2.05;;;14.60;89.70;;;;;;4960370;28;20121;-77
2023/08/06 06:09:24;;;;;;;9.63;2.00;;;14.60;89.30;;;;;;4980105;28;20034;-78
2023/08/06 06:11:50;;;;;;;13.38;2.92;;;14.60;88.40;;;;;;4959063;28;20035;-75
2023/08/06 06:14:19;;;;;;;16.73;2.58;;;14.70;87.90;;;;;;4966090;28;20434;-76
2023/08/06 06:16:45;;;;;;;13.43;2.30;;;14.80;87.80;;;;;;4964755;28;20133;-75
2023/08/06 06:19:11;;;;;;;9.23;2.65;;;14.80;87.80;;;;;;4951640;28;20046;-75
2023/08/06 06:21:38;;;;;;;12.57;2.58;;;14.90;87.50;;;;;;4962703;28;20588;-75
2023/08/06 06:24:05;;;;;;;14.75;3.13;;;14.90;87.60;;;;;;4963008;28;20085;-76
2023/08/06 06:26:31;;;;;;;11.75;3.30;;;14.90;87.70;;;;;;4952152;28;20558;-76
2023/08/06 06:28:56;;;;;;;10.32;2.58;;;15.00;87.30;;;;;;4966744;28;20491;-79
2023/08/06 06:31:22;;;;;;;12.10;3.05;;;14.90;86.70;;;;;;4965357;28;20043;-76
2023/08/06 06:33:48;;;;;;;11.88;2.80;;;15.00;86.60;;;;;;4962936;28;20085;-76
2023/08/06 06:36:13;;;;;;;10.40;3.42;;;15.00;86.50;;;;;;4959273;28;20601;-78
2023/08/06 06:38:39;;;;;;;10.50;3.03;;;15.00;86.70;;;;;;4943158;28;20634;-76
2023/08/06 06:41:05;;;;;;;9.93;3.45;;;14.90;86.70;;;;;;4942305;28;20150;-77
2023/08/06 06:43:30;;;;;;;10.32;3.33;;;14.90;87.00;;;;;;4943774;28;20059;-75
2023/08/06 06:45:58;;;;;;;13.15;3.40;;;14.80;87.80;;;;;;4945813;28;20073;-76
2023/08/06 06:48:24;;;;;;;12.07;4.05;;;14.80;87.90;;;;;;4944549;28;20110;-78
2023/08/06 06:50:50;;;;;;;17.55;4.28;;;14.80;87.60;;;;;;4943283;28;20039;-77
2023/08/06 06:53:16;;;;;;;13.25;4.25;;;14.90;88.20;;;;;;4944454;28;20047;-75
2023/08/06 06:55:41;;;;;;;13.32;3.65;;;14.90;87.70;;;;;;4945901;28;20041;-76
2023/08/06 06:58:07;;;;;;;12.35;4.07;;;15.00;87.70;;;;;;4945710;28;20464;-77
2023/08/06 07:00:35;;;;;;;9.60;3.72;;;15.10;87.60;;;;;;4945154;28;20051;-76
2023/08/06 07:03:00;;;;;;;9.90;3.22;;;15.10;86.90;;;;;;4945333;28;20031;-77
2023/08/06 07:05:26;;;;;;;10.70;3.05;;;15.10;86.70;;;;;;4942904;28;20555;-77
2023/08/06 07:07:52;;;;;;;11.10;3.53;;;15.10;86.50;;;;;;4953204;28;20054;-76
2023/08/06 07:10:18;;;;;;;10.43;3.22;;;15.10;85.90;;;;;;4964502;28;20059;-77
2023/08/06 07:12:44;;;;;;;12.93;4.15;;;15.00;85.60;;;;;;4964665;28;20166;-77
2023/08/06 07:15:10;;;;;;;9.60;3.10;;;15.00;85.60;;;;;;4962453;28;20089;-77
2023/08/06 07:17:36;;;;;;;12.57;3.40;;;15.10;85.80;;;;;;4963363;28;20034;-77
2023/08/06 07:20:01;;;;;;;9.52;2.67;;;15.00;85.00;;;;;;4966336;28;21255;-77
2023/08/06 07:22:27;;;;;;;12.02;3.35;;;14.90;85.30;;;;;;4947653;28;20082;-76
2023/08/06 07:24:53;;;;;;;10.02;3.40;;;14.90;85.80;;;;;;4945452;28;20049;-76
2023/08/06 07:27:18;;;;;;;12.38;3.20;;;14.90;85.90;;;;;;4951234;28;20502;-77
2023/08/06 07:29:44;;;;;;;10.88;3.60;;;14.90;86.00;;;;;;4950713;28;20063;-76
2023/08/06 07:32:10;;;;;;;11.05;3.53;;;15.00;85.90;;;;;;4949108;28;20042;-77
2023/08/06 07:34:36;;;;;;;11.38;3.13;;;15.00;85.60;;;;;;4965807;28;20117;-79
2023/08/06 07:37:01;;;;;;;10.55;3.03;;;14.90;85.10;;;;;;4961795;28;20046;-78
2023/08/06 07:39:28;;;;;;;8.98;2.47;;;15.00;85.80;;;;;;4964069;28;20679;-75
2023/08/06 07:41:54;;;;;;;13.77;4.22;;;15.00;85.20;;;;;;4961803;28;20039;-76
2023/08/06 07:44:19;;;;;;;9.50;2.80;;;15.00;85.60;;;;;;4942607;28;20412;-75
2023/08/06 07:46:45;;;;;;;8.65;2.95;;;14.90;85.50;;;;;;4943524;28;20465;-76
2023/08/06 07:49:11;;;;;;;14.18;3.30;;;14.90;85.30;;;;;;4942574;28;20035;-75
2023/08/06 07:51:38;;;;;;;8.73;2.97;;;14.80;85.10;;;;;;4943199;28;20048;-75
2023/08/06 07:54:03;;;;;;;10.57;3.03;;;14.80;84.30;;;;;;4940433;28;20110;-73
2023/08/06 07:56:29;;;;;;;12.40;3.40;;;14.90;84.60;;;;;;4954621;28;20445;-74
2023/08/06 07:58:55;;;;;;;10.40;3.22;;;15.10;84.30;;;;;;4963299;28;20050;-74
2023/08/06 08:01:21;;;;;;;12.50;3.80;;;15.10;83.30;;;;;;4962490;28;20515;-74
2023/08/06 08:03:46;;;;;;;10.15;2.60;;;15.10;83.30;;;;;;4963268;28;20601;-74
2023/08/06 08:06:12;;;;;;;11.00;3.13;;;15.20;83.70;;;;;;4960836;28;20046;-74
2023/08/06 08:08:38;;;;;;;11.68;2.97;;;15.10;83.50;;;;;;4963625;28;20141;-74
2023/08/06 08:11:05;;;;;;;10.77;2.55;;;15.10;82.30;;;;;;4956702;28;20516;-74
2023/08/06 08:13:30;;;;;;;12.00;3.15;;;15.20;82.60;;;;;;4966826;28;20042;-74
2023/08/06 08:15:58;;;;;;;8.35;3.10;;;15.20;82.50;;;;;;4967408;28;20047;-74
2023/08/06 08:18:23;;;;;;;15.00;3.63;;;15.40;82.70;;;;;;4964047;28;20126;-73
2023/08/06 08:20:49;;;;;;;12.13;3.03;;;15.40;82.80;;;;;;4960608;28;20114;-73
2023/08/06 08:23:15;;;;;;;9.63;2.95;;;15.30;81.80;;;;;;4962537;28;20527;-75
2023/08/06 08:25:40;;;;;;;13.55;3.30;;;15.30;81.70;;;;;;4968271;28;20444;-74
2023/08/06 08:28:06;;;;;;;10.98;3.05;;;15.30;81.90;;;;;;4966640;28;20419;-74
2023/08/06 08:30:32;;;;;;;13.02;2.90;;;15.30;82.00;;;;;;4964832;28;20383;-74
2023/08/06 08:32:58;;;;;;;10.57;2.72;;;15.30;82.80;;;;;;4967043;28;20657;-74
2023/08/06 08:35:23;;;;;;;14.07;3.28;;;15.40;82.30;;;;;;4964099;28;20086;-74
2023/08/06 08:37:50;;;;;;;9.48;2.80;;;15.40;81.60;;;;;;4964618;28;20053;-75
2023/08/06 08:40:16;;;;;;;8.07;2.63;;;15.40;81.60;;;;;;4967939;28;20061;-74
2023/08/06 08:42:42;;;;;;;13.80;3.30;;;15.40;82.00;;;;;;4979419;28;20070;-74
2023/08/06 08:45:20;;;;;;;8.60;2.35;;;15.30;82.30;;;;;;4967286;28;20042;-74
2023/08/06 08:47:47;;;;;;;8.90;2.55;;;15.30;82.30;;;;;;4967311;28;20050;-75
2023/08/06 08:50:14;;;;;;;11.20;3.25;;;15.40;82.40;;;;;;4970193;28;20369;-74
2023/08/06 08:52:42;;;;;;;11.45;2.60;;;15.30;82.10;;;;;;4960225;28;20035;-74
2023/08/06 08:55:08;;;;;;;12.95;3.75;;;15.50;82.00;;;;;;4949995;28;20082;-74
2023/08/06 08:57:34;;;;;;;10.73;2.83;;;15.50;80.80;;;;;;4962279;28;20034;-74
2023/08/06 09:00:00;;;;;;;11.20;2.88;;;15.60;80.90;;;;;;4963314;28;20028;-75
2023/08/06 09:02:29;;;;;;;11.15;3.35;;;15.70;81.30;;;;;;4963255;28;20096;-75
2023/08/06 09:05:02;;;;;;;11.27;3.42;;;15.90;81.10;;;;;;4965576;28;20027;-74
2023/08/06 09:07:34;;;;;;;14.07;3.78;;;16.00;80.80;;;;;;4962593;28;20053;-74
2023/08/06 09:10:03;;;;;;;10.07;3.10;;;16.10;80.80;;;;;;4950749;28;20027;-74
2023/08/06 09:12:32;;;;;;;10.23;2.85;;;16.20;80.30;;;;;;4957624;28;20050;-75
2023/08/06 09:14:58;;;;;;;14.90;3.00;;;16.40;80.50;;;;;;4967873;28;20034;-75
2023/08/06 09:17:24;;;;;;;10.73;2.70;;;16.60;79.60;;;;;;4956803;28;20500;-74
2023/08/06 09:19:52;;;;;;;14.45;3.03;;;16.70;79.70;;;;;;4951211;28;20038;-74
2023/08/06 09:22:18;;;;;;;11.15;2.75;;;16.50;79.50;;;;;;4950080;28;20046;-73
2023/08/06 09:24:44;;;;;;;11.95;3.33;;;16.00;81.00;;;;;;4951400;28;20027;-74
2023/08/06 09:27:14;;;;;;;9.00;2.58;;;15.80;82.30;;;;;;4951975;28;20758;-73
2023/08/06 09:29:49;;;;;;;10.65;3.35;;;15.60;82.40;;;;;;4956428;28;20024;-75
2023/08/06 09:32:15;;;;;;;11.50;3.22;;;15.50;82.30;;;;;;4951529;28;20039;-75
2023/08/06 09:34:46;;;;;;;10.48;3.00;;;15.60;81.80;;;;;;4945875;28;20019;-74
2023/08/06 09:37:12;;;;;;;8.82;2.83;;;15.80;82.10;;;;;;4963911;28;20066;-75
2023/08/06 09:39:41;;;;;;;11.35;3.35;;;15.90;81.10;;;;;;4960983;28;20035;-75
2023/08/06 09:42:10;;;;;;;8.95;3.00;;;15.70;81.00;;;;;;4961801;28;20450;-77
2023/08/06 09:44:36;;;;;;;10.57;2.95;;;15.60;81.80;;;;;;4961224;28;20038;-73
2023/08/06 09:47:07;;;;;;;9.40;3.17;;;15.40;82.60;;;;;;4969046;28;20046;-73
2023/08/06 09:49:33;;;;;;;15.00;4.10;;;15.40;83.50;;;;;;4965481;28;20476;-73
2023/08/06 09:51:59;;;;;;;14.88;3.63;;;15.30;83.10;;;;;;4965562;28;20062;-74
2023/08/06 09:54:27;;;;;;;10.70;3.40;;;15.50;81.70;;;;;;4964393;28;20118;-73
2023/08/06 09:56:53;;;;;;;11.23;3.45;;;15.70;81.20;;;;;;4971242;28;20034;-74
2023/08/06 09:59:19;;;;;;;11.38;3.42;;;16.00;80.00;;;;;;4965300;28;20043;-73
2023/08/06 10:01:45;;;;;;;9.70;3.10;;;16.30;79.10;;;;;;4960129;28;20043;-72
2023/08/06 10:04:15;;;;;;;12.98;3.22;;;16.40;76.80;;;;;;4964738;28;20049;-73
2023/08/06 10:06:42;;;;;;;9.25;2.88;;;16.50;77.30;;;;;;4964225;28;20133;-74
2023/08/06 10:09:09;;;;;;;11.60;3.05;;;16.50;77.40;;;;;;4957801;28;20078;-74
2023/08/06 10:11:37;;;;;;;12.90;3.08;;;16.30;79.10;;;;;;4956745;28;20447;-73
2023/08/06 10:14:13;;;;;;;10.30;3.30;;;16.20;79.10;;;;;;4965317;28;20039;-73
2023/08/06 10:16:43;;;;;;;10.15;3.28;;;16.20;76.90;;;;;;4964380;28;20149;-73
2023/08/06 10:19:13;;;;;;;12.10;3.03;;;16.30;76.20;;;;;;4964756;28;20035;-74
2023/08/06 10:21:39;;;;;;;9.07;3.00;;;16.50;75.80;;;;;;4958565;28;20694;-74
2023/08/06 10:24:10;;;;;;;9.20;2.80;;;16.50;73.60;;;;;;4968522;28;20513;-74
2023/08/06 10:26:36;;;;;;;14.38;4.22;;;16.50;75.00;;;;;;4983800;28;20047;-75
2023/08/06 10:29:22;;;;;;;13.00;3.50;;;16.50;76.00;;;;;;4972477;28;20520;-74
2023/08/06 10:31:57;;;;;;;10.45;3.28;;;16.80;76.00;;;;;;4995829;28;20046;-74
2023/08/06 10:34:23;;;;;;;9.18;2.80;;;17.00;75.00;;;;;;4988410;28;20046;-74
2023/08/06 10:36:48;;;;;;;11.40;3.20;;;17.00;75.10;;;;;;4961980;28;20030;-74
2023/08/06 10:39:15;;;;;;;13.27;3.35;;;16.60;76.20;;;;;;4962717;28;20058;-74
2023/08/06 10:41:44;;;;;;;13.73;3.35;;;16.30;78.30;;;;;;4966845;28;20080;-74
2023/08/06 10:44:11;;;;;;;10.15;3.30;;;16.20;78.70;;;;;;4971204;28;20048;-74
2023/08/06 10:46:37;;;;;;;11.43;3.58;;;16.30;78.40;;;;;;4962513;28;20039;-74
2023/08/06 10:49:04;;;;;;;14.82;4.40;;;16.40;79.30;;;;;;4959081;28;20038;-74
2023/08/06 10:51:30;;;;;;;12.13;4.00;;;16.50;78.40;;;;;;4961984;28;20459;-74
2023/08/06 10:53:57;;;;;;;13.85;3.67;;;16.40;78.30;;;;;;4965034;28;20507;-74
2023/08/06 10:56:27;;;;;;;12.15;4.03;;;16.10;80.40;;;;;;4964250;28;20038;-74
2023/08/06 10:58:57;;;;;;;13.40;4.53;;;16.10;81.50;;;;;;4959420;28;20046;-75
2023/08/06 11:01:29;;;;;;;12.00;3.70;;;16.10;81.50;;;;;;4964029;28;20130;-74
2023/08/06 11:03:54;;;;;;;15.40;4.05;;;16.10;81.30;;;;;;4957772;28;20037;-73
2023/08/06 11:06:21;;;;;;;14.57;4.00;;;16.10;81.60;;;;;;4950860;28;20047;-75
2023/08/06 11:08:49;;;;;;;9.95;3.60;;;16.10;81.50;;;;;;4949384;28;20043;-75
2023/08/06 11:11:16;;;;;;;13.77;4.57;;;16.10;82.00;;;;;;4948078;28;20126;-74
2023/08/06 11:13:49;;;;;;;11.48;3.85;;;16.20;81.80;;;;;;4947924;28;20046;-74
2023/08/06 11:16:18;;;;;;;16.92;4.32;;;16.20;82.00;;;;;;4950676;28;20038;-74
2023/08/06 11:18:44;;;;;;;11.77;3.58;;;16.10;81.90;;;;;;4962148;28;20047;-74
2023/08/06 11:21:11;;;;;;;11.30;3.47;;;15.80;80.60;;;;;;4956876;28;20089;-74
2023/08/06 11:23:38;;;;;;;12.88;3.70;;;15.70;81.90;;;;;;4966477;28;20433;-75
2023/08/06 11:26:03;;;;;;;10.70;3.63;;;15.70;83.10;;;;;;4960181;28;20055;-74
2023/08/06 11:28:29;;;;;;;9.68;3.28;;;15.80;84.00;;;;;;4951940;28;20034;-74
2023/08/06 11:30:56;;;;;;;10.88;3.10;;;15.70;83.80;;;;;;4953499;28;20036;-74
2023/08/06 11:33:26;;;;;;;11.65;3.88;;;15.90;84.40;;;;;;4964963;28;20038;-74
2023/08/06 11:35:52;;;;;;;9.63;4.25;;;16.00;84.60;;;;;;4968362;28;20467;-76
2023/08/06 11:38:18;;;;;;;14.52;4.38;;;16.10;83.60;;;;;;4966741;28;20039;-74
2023/08/06 11:40:53;;;;;;;12.15;4.03;;;16.00;83.90;;;;;;4963156;28;20091;-74
2023/08/06 11:43:22;;;;;;;12.23;4.15;;;15.60;84.60;;;;;;4948364;28;20407;-74
2023/08/06 11:45:48;;;;;;;10.55;4.25;;;15.30;86.50;;;;;;4957070;28;20038;-74
2023/08/06 11:48:14;;;;;;;11.13;4.18;;;15.40;86.60;;;;;;4966048;28;20137;-74
2023/08/06 11:50:40;;;;;;;13.07;4.22;;;15.60;87.10;;;;;;4961824;28;20133;-74
2023/08/06 11:53:05;;;;;;;12.52;4.93;;;15.60;86.60;;;;;;4946176;28;20077;-74
2023/08/06 11:55:32;;;;;;;12.27;4.38;;;15.40;86.10;;;;;;4940192;28;20682;-73
2023/08/06 11:57:58;;;;;;;14.98;4.72;;;15.30;87.20;;;;;;4941337;28;20056;-74
2023/08/06 12:00:25;;;;;;;12.93;4.40;;;15.50;87.30;;;;;;4936750;28;21271;-74
2023/08/06 12:02:52;;;;;;;11.10;3.72;;;15.50;86.40;;;;;;4932011;28;20132;-74
2023/08/06 12:05:25;;;;;;;13.77;4.32;;;15.60;85.00;;;;;;4942284;28;20429;-75
2023/08/06 12:07:57;;;;;;;10.00;3.63;;;15.80;85.00;;;;;;4942154;28;20066;-74
2023/08/06 12:10:25;;;;;;;12.73;3.33;;;15.80;82.40;;;;;;4938417;28;20543;-74
2023/08/06 12:12:51;;;;;;;8.85;3.40;;;15.70;83.30;;;;;;4939994;28;20027;-74
2023/08/06 12:15:17;;;;;;;10.18;3.30;;;15.60;83.60;;;;;;4940710;28;20038;-74
2023/08/06 12:17:43;;;;;;;15.60;4.15;;;15.60;82.70;;;;;;4942700;28;20468;-73
2023/08/06 12:20:09;;;;;;;9.82;2.80;;;15.90;82.10;;;;;;4941606;28;20032;-74
2023/08/06 12:22:37;;;;;;;9.32;3.00;;;16.00;79.80;;;;;;4941422;28;20143;-74
2023/08/06 12:25:12;;;;;;;9.55;3.17;;;16.10;79.30;;;;;;4942822;28;20062;-74
2023/08/06 12:27:43;;;;;;;15.15;3.50;;;16.10;79.30;;;;;;4939192;28;20035;-74
2023/08/06 12:30:10;;;;;;;13.30;2.90;;;16.40;79.50;;;;;;4941672;28;20316;-74
2023/08/06 12:32:36;;;;;;;8.35;2.85;;;16.60;79.50;;;;;;4943976;28;20039;-73
2023/08/06 12:35:03;;;;;;;10.55;2.85;;;16.70;78.00;;;;;;4944556;28;20175;-74
2023/08/06 12:37:29;;;;;;;11.55;3.05;;;16.90;76.60;;;;;;4947419;28;20031;-74